createdAt,value
2018-12-17T00:01:25.574Z,73.73
2018-12-17T00:03:57.630Z,69.70
2018-12-17T00:06:29.487Z,69.27
2018-12-17T00:08:59.354Z,67.10
2018-12-17T00:11:29.110Z,65.77
2018-12-17T00:14:00.109Z,69.47
2018-12-17T00:16:29.974Z,66.07
2018-12-17T00:18:59.821Z,66.47
2018-12-17T00:21:29.674Z,74.83
2018-12-17T00:23:59.575Z,70.30
2018-12-17T00:26:29.398Z,76.10
2018-12-17T00:28:59.123Z,68.40
2018-12-17T00:31:28.903Z,75.87
2018-12-17T00:33:58.606Z,75.87
2018-12-17T00:36:28.485Z,76.13
2018-12-17T00:38:58.181Z,73.30
2018-12-17T00:41:27.995Z,78.07
2018-12-17T00:43:57.820Z,76.07
2018-12-17T00:46:27.676Z,73.53
2018-12-17T00:48:57.494Z,82.13
2018-12-17T00:51:27.178Z,84.93
2018-12-17T00:53:56.945Z,69.87
2018-12-17T00:56:26.696Z,79.70
2018-12-17T00:58:56.334Z,72.73
2018-12-17T01:01:26.523Z,83.37
2018-12-17T01:03:56.210Z,73.67
2018-12-17T01:06:26.126Z,77.93
2018-12-17T01:08:55.950Z,65.93
2018-12-17T01:11:25.720Z,68.70
2018-12-17T01:13:55.597Z,66.83
2018-12-17T01:16:26.547Z,69.03
2018-12-17T01:18:56.430Z,67.33
2018-12-17T01:21:26.721Z,62.27
2018-12-17T01:23:56.370Z,60.33
2018-12-17T01:26:26.721Z,49.67
2018-12-17T01:28:56.500Z,51.37
2018-12-17T01:31:26.195Z,48.53
2018-12-17T01:33:55.968Z,50.17
2018-12-17T01:36:25.810Z,59.53
2018-12-17T01:38:55.459Z,53.67
2018-12-17T01:41:25.623Z,53.37
2018-12-17T01:43:55.478Z,53.53
2018-12-17T01:46:25.190Z,53.47
2018-12-17T01:48:54.867Z,44.87
2018-12-17T01:51:24.561Z,50.23
2018-12-17T01:53:54.273Z,51.73
2018-12-17T01:56:30.647Z,52.97
2018-12-17T01:59:00.358Z,53.03
2018-12-17T02:01:30.152Z,51.10
2018-12-17T02:03:59.907Z,52.63
2018-12-17T02:06:29.709Z,50.43
2018-12-17T02:08:59.382Z,54.60
2018-12-17T02:11:29.083Z,52.33
2018-12-17T02:13:58.796Z,56.20
2018-12-17T02:16:28.672Z,56.10
2018-12-17T02:18:58.435Z,53.20
2018-12-17T02:21:28.162Z,56.10
2018-12-17T02:23:57.896Z,56.27
2018-12-17T02:26:27.767Z,55.87
2018-12-17T02:28:57.609Z,59.80
2018-12-17T02:31:27.355Z,65.13
2018-12-17T02:33:57.117Z,62.90
2018-12-17T02:36:26.789Z,62.10
2018-12-17T02:38:56.406Z,62.80
2018-12-17T02:41:25.996Z,60.20
2018-12-17T02:43:55.904Z,62.33
2018-12-17T02:46:25.517Z,67.67
2018-12-17T02:48:55.268Z,67.47
2018-12-17T02:51:24.941Z,68.87
2018-12-17T02:53:54.639Z,72.43
2018-12-17T02:56:24.310Z,73.63
2018-12-17T02:58:53.958Z,73.37
2018-12-17T03:01:23.517Z,71.43
2018-12-17T03:03:53.229Z,66.07
2018-12-17T03:06:22.854Z,69.63
2018-12-17T03:08:52.529Z,75.43
2018-12-17T03:11:22.228Z,71.37
2018-12-17T03:13:52.006Z,77.77
2018-12-17T03:16:21.643Z,71.77
2018-12-17T03:18:51.338Z,76.27
2018-12-17T03:21:21.052Z,74.87
2018-12-17T03:23:50.838Z,78.97
2018-12-17T03:26:20.527Z,78.27
2018-12-17T03:28:51.804Z,81.53
2018-12-17T03:31:21.906Z,77.73
2018-12-17T03:33:51.593Z,80.63
2018-12-17T03:36:21.328Z,80.10
2018-12-17T03:38:50.992Z,76.63
2018-12-17T03:41:20.694Z,80.17
2018-12-17T03:43:50.398Z,76.97
2018-12-17T03:46:20.061Z,72.40
2018-12-17T03:48:49.789Z,80.90
2018-12-17T03:51:19.707Z,75.73
2018-12-17T03:53:49.437Z,77.63
2018-12-17T03:56:19.166Z,78.67
2018-12-17T03:58:48.899Z,76.50
2018-12-17T04:01:18.637Z,83.87
2018-12-17T04:03:48.349Z,79.83
2018-12-17T04:06:17.989Z,79.73
2018-12-17T04:08:47.696Z,82.33
2018-12-17T04:11:17.445Z,79.53
2018-12-17T04:13:47.454Z,75.97
2018-12-17T04:16:17.250Z,76.07
2018-12-17T04:18:46.972Z,75.57
2018-12-17T04:21:17.063Z,69.37
2018-12-17T04:23:46.795Z,73.53
2018-12-17T04:26:18.592Z,72.53
2018-12-17T04:28:48.344Z,69.03
2018-12-17T04:31:18.064Z,75.87
2018-12-17T04:33:48.159Z,68.90
2018-12-17T04:36:18.988Z,59.17
2018-12-17T04:38:48.762Z,56.47
2018-12-17T04:41:18.673Z,62.33
2018-12-17T04:43:48.560Z,55.27
2018-12-17T04:46:18.460Z,52.13
2018-12-17T04:48:48.261Z,52.70
2018-12-17T04:51:18.298Z,55.13
2018-12-17T04:53:48.031Z,59.40
2018-12-17T04:56:17.856Z,62.53
2018-12-17T04:58:47.839Z,63.53
2018-12-17T05:01:17.683Z,67.93
2018-12-17T05:03:47.584Z,61.43
2018-12-17T05:06:17.482Z,64.63
2018-12-17T05:08:47.400Z,69.07
2018-12-17T05:11:17.331Z,65.47
2018-12-17T05:13:47.084Z,64.47
2018-12-17T05:16:17.026Z,66.73
2018-12-17T05:18:47.084Z,67.30
2018-12-17T05:21:16.966Z,59.10
2018-12-17T05:23:46.811Z,64.47
2018-12-17T05:26:16.485Z,67.23
2018-12-17T05:28:46.303Z,69.00
2018-12-17T05:31:16.231Z,62.33
2018-12-17T05:33:46.017Z,60.93
2018-12-17T05:36:15.880Z,58.30
2018-12-17T05:38:45.565Z,64.07
2018-12-17T05:41:15.529Z,57.87
2018-12-17T05:43:45.547Z,62.77
2018-12-17T05:46:15.471Z,64.33
2018-12-17T05:48:45.465Z,62.03
2018-12-17T05:51:15.268Z,59.30
2018-12-17T05:53:45.096Z,66.90
2018-12-17T05:56:15.181Z,62.60
2018-12-17T05:58:44.931Z,63.20
2018-12-17T06:01:14.718Z,67.50
2018-12-17T06:03:44.503Z,66.80
2018-12-17T06:06:14.297Z,71.27
2018-12-17T06:08:44.134Z,75.47
2018-12-17T06:11:14.183Z,69.67
2018-12-17T06:13:44.146Z,74.13
2018-12-17T06:16:13.977Z,61.73
2018-12-17T06:18:43.987Z,62.63
2018-12-17T06:21:14.873Z,63.03
2018-12-17T06:23:44.928Z,63.47
2018-12-17T06:26:14.818Z,63.17
2018-12-17T06:28:44.771Z,63.97
2018-12-17T06:31:14.758Z,69.17
2018-12-17T06:33:44.573Z,73.30
2018-12-17T06:36:14.455Z,68.43
2018-12-17T06:38:44.333Z,74.90
2018-12-17T06:41:14.243Z,71.23
2018-12-17T06:43:44.222Z,76.10
2018-12-17T06:46:14.199Z,70.10
2018-12-17T06:48:44.053Z,71.17
2018-12-17T06:51:14.052Z,72.17
2018-12-17T06:53:44.153Z,77.53
2018-12-17T06:56:15.014Z,74.93
2018-12-17T06:58:45.073Z,73.80
2018-12-17T07:01:15.026Z,80.33
2018-12-17T07:03:45.016Z,80.80
2018-12-17T07:06:15.235Z,87.97
2018-12-17T07:08:45.497Z,82.50
2018-12-17T07:11:15.643Z,70.30
2018-12-17T07:13:45.693Z,77.93
2018-12-17T07:16:15.668Z,75.23
2018-12-17T07:18:45.628Z,79.33
2018-12-17T07:21:15.760Z,77.87
2018-12-17T07:23:45.885Z,77.20
2018-12-17T07:26:15.823Z,72.27
2018-12-17T07:28:45.779Z,81.17
2018-12-17T07:31:15.828Z,88.30
2018-12-17T07:33:45.784Z,88.10
2018-12-17T07:36:15.953Z,86.93
2018-12-17T07:38:45.709Z,92.80
2018-12-17T07:41:15.605Z,91.63
2018-12-17T07:43:45.345Z,89.83
2018-12-17T07:46:15.202Z,85.07
2018-12-17T07:48:44.947Z,87.40
2018-12-17T07:51:14.916Z,87.03
2018-12-17T07:53:44.868Z,98.17
2018-12-17T07:56:14.685Z,97.97
2018-12-17T07:58:44.581Z,107.83
2018-12-17T08:01:14.393Z,85.57
2018-12-17T08:03:44.124Z,87.60
2018-12-17T08:06:13.879Z,83.00
2018-12-17T08:08:43.486Z,82.80
2018-12-17T08:11:13.333Z,84.83
2018-12-17T08:13:43.394Z,101.67
2018-12-17T08:16:13.225Z,83.83
2018-12-17T08:18:43.087Z,93.77
2018-12-17T08:21:12.870Z,79.13
2018-12-17T08:23:42.570Z,83.00
2018-12-17T08:26:19.036Z,92.77
2018-12-17T08:28:49.060Z,105.80
2018-12-17T08:31:18.946Z,107.07
2018-12-17T08:33:48.810Z,83.47
2018-12-17T08:36:18.724Z,88.57
2018-12-17T08:38:49.678Z,86.00
2018-12-17T08:41:19.484Z,92.70
2018-12-17T08:43:49.202Z,94.80
2018-12-17T08:46:20.111Z,94.73
2018-12-17T08:48:50.002Z,104.17
2018-12-17T08:51:19.904Z,148.73
2018-12-17T08:53:49.637Z,87.10
2018-12-17T08:56:19.436Z,91.80
2018-12-17T08:58:49.201Z,93.60
2018-12-17T09:01:18.894Z,102.43
2018-12-17T09:03:48.971Z,99.83
2018-12-17T09:06:19.056Z,107.40
2018-12-17T09:08:48.726Z,97.13
2018-12-17T09:11:18.693Z,93.83
2018-12-17T09:13:48.504Z,92.13
2018-12-17T09:16:18.324Z,105.30
2018-12-17T09:18:48.197Z,95.40
2018-12-17T09:21:18.195Z,94.90
2018-12-17T09:23:47.963Z,94.17
2018-12-17T09:26:17.659Z,93.50
2018-12-17T09:28:47.560Z,95.80
2018-12-17T09:31:17.277Z,103.93
2018-12-17T09:33:47.070Z,100.67
2018-12-17T09:36:16.910Z,100.20
2018-12-17T09:38:46.741Z,99.83
2018-12-17T09:41:16.685Z,100.30
2018-12-17T09:43:46.546Z,104.30
2018-12-17T09:46:16.410Z,103.33
2018-12-17T09:48:46.238Z,98.57
2018-12-17T09:51:19.585Z,98.00
2018-12-17T09:53:48.276Z,95.57
2018-12-17T09:56:18.298Z,95.97
2018-12-17T09:58:48.370Z,94.03
2018-12-17T10:01:18.288Z,99.93
2018-12-17T10:03:48.296Z,99.07
2018-12-17T10:06:18.442Z,99.47
2018-12-17T10:08:48.344Z,104.07
2018-12-17T10:11:18.164Z,100.43
2018-12-17T10:13:48.212Z,93.27
2018-12-17T10:16:18.132Z,88.80
2018-12-17T10:18:48.278Z,93.67
2018-12-17T10:21:18.270Z,89.37
2018-12-17T10:23:48.650Z,95.17
2018-12-17T10:26:18.676Z,98.13
2018-12-17T10:28:48.684Z,95.17
2018-12-17T10:31:18.541Z,91.97
2018-12-17T10:33:48.413Z,99.47
2018-12-17T10:36:18.248Z,95.97
2018-12-17T10:38:48.154Z,103.77
2018-12-17T10:41:18.174Z,97.83
2018-12-17T10:43:50.026Z,95.50
2018-12-17T10:46:19.864Z,96.60
2018-12-17T10:48:49.808Z,100.47
2018-12-17T10:51:19.913Z,96.73
2018-12-17T10:53:49.774Z,94.47
2018-12-17T10:56:19.880Z,98.27
2018-12-17T10:58:49.695Z,90.13
2018-12-17T11:01:24.826Z,85.90
2018-12-17T11:03:58.935Z,96.80
2018-12-17T11:06:28.888Z,89.13
2018-12-17T11:08:59.131Z,93.27
2018-12-17T11:11:29.105Z,86.77
2018-12-17T11:13:59.164Z,91.17
2018-12-17T11:16:29.065Z,85.80
2018-12-17T11:18:58.934Z,93.70
2018-12-17T11:21:29.018Z,88.47
2018-12-17T11:23:58.989Z,88.73
2018-12-17T11:26:28.872Z,88.07
2018-12-17T11:28:58.750Z,97.07
2018-12-17T11:31:28.495Z,99.97
2018-12-17T11:33:58.228Z,97.13
2018-12-17T11:36:28.109Z,94.77
2018-12-17T11:38:58.330Z,93.67
2018-12-17T11:41:33.235Z,94.70
2018-12-17T11:44:04.070Z,96.30
2018-12-17T11:46:34.026Z,96.00
2018-12-17T11:49:03.718Z,86.63
2018-12-17T11:51:33.649Z,92.97
2018-12-17T11:54:04.002Z,93.70
2018-12-17T11:56:47.281Z,96.20
2018-12-17T11:59:17.197Z,95.00
2018-12-17T12:01:49.517Z,93.47
2018-12-17T12:04:19.529Z,98.93
2018-12-17T12:06:49.341Z,94.10
2018-12-17T12:09:23.390Z,98.40
2018-12-17T12:11:53.234Z,95.10
2018-12-17T12:14:23.036Z,93.43
2018-12-17T12:16:52.694Z,98.37
2018-12-17T12:19:24.432Z,99.50
2018-12-17T12:21:55.187Z,103.27
2018-12-17T12:24:25.094Z,106.07
2018-12-17T12:26:54.929Z,100.27
2018-12-17T12:29:24.684Z,98.70
2018-12-17T12:31:54.686Z,100.80
2018-12-17T12:34:24.774Z,102.03
2018-12-17T12:36:54.663Z,103.13
2018-12-17T12:39:24.534Z,103.93
2018-12-17T12:41:54.404Z,101.83
2018-12-17T12:44:24.146Z,100.83
2018-12-17T12:46:54.034Z,104.67
2018-12-17T12:49:23.940Z,102.10
2018-12-17T12:51:54.095Z,101.43
2018-12-17T12:54:24.034Z,103.77
2018-12-17T12:56:53.802Z,101.87
2018-12-17T12:59:23.669Z,98.00
2018-12-17T13:01:53.614Z,91.87
2018-12-17T13:04:23.488Z,100.67
2018-12-17T13:06:53.646Z,94.17
2018-12-17T13:09:23.693Z,97.67
2018-12-17T13:11:53.614Z,105.10
2018-12-17T13:14:23.594Z,104.73
2018-12-17T13:16:53.651Z,101.40
2018-12-17T13:19:23.609Z,98.37
2018-12-17T13:21:53.568Z,99.73
2018-12-17T13:24:23.820Z,107.27
2018-12-17T13:26:53.745Z,98.87
2018-12-17T13:29:23.619Z,109.10
2018-12-17T13:31:53.530Z,109.07
2018-12-17T13:34:23.499Z,112.03
2018-12-17T13:36:53.499Z,111.93
2018-12-17T13:39:23.556Z,104.80
2018-12-17T13:41:53.506Z,103.37
2018-12-17T13:44:23.499Z,109.57
2018-12-17T13:46:53.459Z,115.37
2018-12-17T13:49:23.717Z,107.50
2018-12-17T13:51:59.093Z,107.27
2018-12-17T13:54:29.090Z,110.53
2018-12-17T13:56:59.193Z,113.90
2018-12-17T13:59:29.159Z,115.50
2018-12-17T14:01:59.246Z,113.97
2018-12-17T14:04:29.259Z,117.23
2018-12-17T14:06:59.321Z,115.53
2018-12-17T14:09:29.409Z,119.40
2018-12-17T14:11:59.321Z,120.47
2018-12-17T14:14:29.500Z,125.00
2018-12-17T14:17:04.563Z,122.23
2018-12-17T14:19:34.434Z,126.47
2018-12-17T14:22:07.761Z,120.43
2018-12-17T14:24:37.751Z,123.30
2018-12-17T14:27:08.779Z,121.30
2018-12-17T14:29:38.890Z,126.70
2018-12-17T14:32:09.019Z,135.73
2018-12-17T14:34:39.554Z,126.77
2018-12-17T14:37:09.653Z,132.77
2018-12-17T14:39:39.604Z,131.37
2018-12-17T14:42:10.718Z,135.43
2018-12-17T14:44:41.267Z,133.07
2018-12-17T14:47:11.241Z,136.87
2018-12-17T14:49:41.266Z,131.27
2018-12-17T14:52:11.336Z,137.20
2018-12-17T14:54:41.496Z,131.33
2018-12-17T14:57:11.558Z,142.07
2018-12-17T14:59:41.777Z,159.20
2018-12-17T15:02:12.409Z,145.73
2018-12-17T15:04:42.647Z,146.77
2018-12-17T15:07:12.615Z,151.67
2018-12-17T15:09:42.668Z,147.30
2018-12-17T15:12:13.596Z,155.90
2018-12-17T15:14:44.084Z,165.03
2018-12-17T15:17:14.177Z,158.23
2018-12-17T15:19:44.286Z,152.23
2018-12-17T15:22:14.290Z,158.80
2018-12-17T15:24:44.468Z,170.07
2018-12-17T15:27:14.441Z,153.90
2018-12-17T15:29:44.545Z,153.60
2018-12-17T15:32:14.615Z,155.50
2018-12-17T15:34:45.447Z,148.23
2018-12-17T15:37:16.526Z,151.70
2018-12-17T15:39:46.616Z,149.67
2018-12-17T15:42:16.434Z,155.47
2018-12-17T15:44:46.338Z,154.33
2018-12-17T15:47:16.258Z,151.80
2018-12-17T15:49:46.479Z,158.60
2018-12-17T15:52:16.195Z,160.33
2018-12-17T15:54:46.132Z,168.87
2018-12-17T15:57:16.030Z,180.73
2018-12-17T15:59:45.923Z,169.03
2018-12-17T16:02:15.699Z,174.73
2018-12-17T16:04:45.733Z,173.03
2018-12-17T16:07:15.661Z,169.87
2018-12-17T16:09:45.546Z,169.23
2018-12-17T16:12:16.732Z,160.80
2018-12-17T16:14:46.908Z,163.13
2018-12-17T16:17:16.821Z,164.00
2018-12-17T16:19:46.675Z,152.87
2018-12-17T16:22:16.615Z,161.73
2018-12-17T16:24:46.445Z,156.30
2018-12-17T16:27:19.480Z,173.57
2018-12-17T16:29:48.092Z,170.50
2018-12-17T16:32:18.025Z,197.50
2018-12-17T16:34:47.941Z,197.07
2018-12-17T16:37:17.968Z,200.93
2018-12-17T16:39:47.982Z,191.00
2018-12-17T16:42:17.946Z,185.40
2018-12-17T16:44:47.845Z,181.30
2018-12-17T16:47:18.209Z,178.17
2018-12-17T16:49:48.201Z,182.90
2018-12-17T16:52:18.322Z,188.83
2018-12-17T16:54:48.335Z,177.70
2018-12-17T16:57:18.445Z,183.93
2018-12-17T16:59:48.401Z,169.77
2018-12-17T17:02:18.655Z,161.80
2018-12-17T17:04:48.748Z,188.33
2018-12-17T17:07:18.690Z,175.33
2018-12-17T17:09:48.786Z,176.07
2018-12-17T17:12:18.905Z,188.50
2018-12-17T17:14:51.724Z,195.90
2018-12-17T17:17:21.668Z,210.07
2018-12-17T17:19:51.773Z,212.03
2018-12-17T17:22:21.921Z,172.60
2018-12-17T17:24:52.020Z,183.60
2018-12-17T17:27:22.035Z,195.73
2018-12-17T17:29:52.086Z,175.93
2018-12-17T17:32:22.179Z,182.47
2018-12-17T17:34:52.085Z,169.37
2018-12-17T17:37:22.251Z,165.13
2018-12-17T17:39:52.166Z,171.50
2018-12-17T17:42:22.329Z,168.57
2018-12-17T17:44:52.485Z,167.37
2018-12-17T17:47:22.561Z,179.27
2018-12-17T17:49:52.351Z,181.70
2018-12-17T17:52:22.234Z,180.50
2018-12-17T17:54:52.284Z,178.10
2018-12-17T17:57:22.234Z,206.57
2018-12-17T17:59:52.210Z,196.10
2018-12-17T18:02:22.208Z,190.67
2018-12-17T18:04:52.125Z,186.17
2018-12-17T18:07:28.560Z,242.70
2018-12-17T18:10:23.028Z,208.70
2018-12-17T18:13:08.976Z,213.53
2018-12-17T18:15:46.833Z,176.47
2018-12-17T18:18:16.660Z,167.47
2018-12-17T18:23:55.919Z,192.30
2018-12-17T18:26:35.737Z,174.57
2018-12-17T18:29:06.750Z,199.73
2018-12-17T18:31:37.376Z,209.23
2018-12-17T18:34:07.175Z,217.60
2018-12-17T18:36:37.008Z,225.73
2018-12-17T18:39:08.620Z,229.50
2018-12-17T18:41:40.448Z,219.83
2018-12-17T18:44:10.347Z,228.27
2018-12-17T18:46:42.983Z,232.73
2018-12-17T18:49:12.711Z,224.17
2018-12-17T18:51:42.703Z,212.73
2018-12-17T18:54:12.608Z,216.73
2018-12-17T18:56:42.574Z,192.10
2018-12-17T18:59:12.738Z,180.53
2018-12-17T19:01:42.718Z,183.27
2018-12-17T19:04:12.722Z,194.87
2018-12-17T19:06:42.711Z,200.70
2018-12-17T19:09:12.762Z,198.43
2018-12-17T19:11:43.243Z,194.60
2018-12-17T19:14:14.025Z,196.20
2018-12-17T19:16:44.274Z,178.33
2018-12-17T19:19:14.424Z,202.83
2018-12-17T19:21:44.248Z,202.47
2018-12-17T19:24:15.440Z,187.57
2018-12-17T19:26:45.493Z,185.80
2018-12-17T19:29:15.688Z,193.77
2018-12-17T19:31:45.721Z,181.87
2018-12-17T19:34:15.851Z,184.50
2018-12-17T19:36:45.745Z,183.33
2018-12-17T19:39:15.781Z,210.83
2018-12-17T19:41:47.957Z,182.80
2018-12-17T19:44:18.023Z,180.20
2018-12-17T19:46:48.153Z,186.90
2018-12-17T19:49:18.361Z,221.43
2018-12-17T19:51:48.312Z,203.85
2018-12-17T19:54:18.225Z,210.23
2018-12-17T19:56:48.326Z,190.90
2018-12-17T19:59:19.443Z,180.10
2018-12-17T20:01:49.412Z,181.33
2018-12-17T20:04:19.465Z,172.60
2018-12-17T20:06:49.399Z,181.13
2018-12-17T20:09:19.579Z,190.03
2018-12-17T20:11:49.510Z,183.73
2018-12-17T20:14:19.535Z,185.07
2018-12-17T20:16:49.667Z,173.37
2018-12-17T20:19:19.697Z,178.57
2018-12-17T20:21:49.870Z,204.23
2018-12-17T20:24:20.028Z,187.63
2018-12-17T20:26:50.168Z,199.07
2018-12-17T20:29:20.552Z,178.53
2018-12-17T20:31:50.735Z,176.67
2018-12-17T20:34:20.877Z,183.03
2018-12-17T20:36:50.934Z,168.03
2018-12-17T20:39:21.017Z,179.33
2018-12-17T20:41:51.164Z,190.67
2018-12-17T20:44:21.204Z,203.83
2018-12-17T20:46:51.297Z,204.00
2018-12-17T20:49:21.371Z,192.27
2018-12-17T20:51:51.385Z,185.97
2018-12-17T20:54:21.390Z,213.30
2018-12-17T20:56:51.346Z,201.03
2018-12-17T20:59:21.340Z,203.53
2018-12-17T21:01:51.388Z,198.23
2018-12-17T21:04:21.330Z,196.90
2018-12-17T21:06:51.326Z,188.67
2018-12-17T21:09:21.333Z,186.73
2018-12-17T21:11:52.608Z,200.70
2018-12-17T21:14:23.870Z,201.57
2018-12-17T21:16:54.042Z,198.83
2018-12-17T21:19:23.991Z,180.70
2018-12-17T21:21:53.911Z,174.40
2018-12-17T21:24:23.998Z,196.43
2018-12-17T21:26:53.958Z,198.40
2018-12-17T21:29:24.282Z,196.43
2018-12-17T21:31:54.237Z,186.67
2018-12-17T21:34:24.338Z,206.73
2018-12-17T21:36:54.346Z,210.90
2018-12-17T21:39:24.297Z,220.57
2018-12-17T21:41:54.298Z,220.70
2018-12-17T21:44:24.332Z,215.27
2018-12-17T21:46:54.300Z,219.33
2018-12-17T21:49:24.111Z,222.63
2018-12-17T21:51:54.191Z,236.50
2018-12-17T21:54:24.141Z,224.43
2018-12-17T21:56:54.121Z,234.13
2018-12-17T21:59:24.312Z,217.80
2018-12-17T22:01:54.298Z,223.60
2018-12-17T22:04:24.896Z,237.30
2018-12-17T22:06:55.114Z,223.00
2018-12-17T22:09:25.352Z,212.13
2018-12-17T22:11:55.611Z,198.07
2018-12-17T22:14:25.534Z,210.63
2018-12-17T22:17:00.089Z,194.93
2018-12-17T22:19:33.599Z,210.20
2018-12-17T22:22:03.621Z,202.17
2018-12-17T22:24:33.733Z,203.77
2018-12-17T22:27:03.598Z,216.03
2018-12-17T22:29:33.622Z,196.03
2018-12-17T22:32:03.754Z,169.47
2018-12-17T22:34:33.739Z,176.90
2018-12-17T22:37:04.007Z,167.77
2018-12-17T22:39:36.881Z,184.10
2018-12-17T22:42:06.831Z,170.87
2018-12-17T22:44:36.883Z,177.20
2018-12-17T22:47:06.782Z,159.03
2018-12-17T22:49:36.853Z,169.27
2018-12-17T22:52:06.964Z,163.50
2018-12-17T22:54:36.946Z,162.37
2018-12-17T22:57:06.873Z,179.40
2018-12-17T22:59:36.936Z,158.30
2018-12-17T23:02:06.906Z,149.10
2018-12-17T23:04:36.889Z,139.53
2018-12-17T23:07:06.793Z,139.47
2018-12-17T23:09:47.702Z,126.33
2018-12-17T23:12:28.481Z,123.80
2018-12-17T23:15:09.226Z,123.13
2018-12-17T23:17:40.284Z,121.17
2018-12-17T23:20:11.582Z,113.93
2018-12-17T23:22:44.523Z,108.43
2018-12-17T23:25:16.568Z,113.27
2018-12-17T23:27:50.798Z,116.30
2018-12-17T23:30:22.330Z,108.70
2018-12-17T23:32:52.478Z,105.10
2018-12-17T23:35:22.506Z,112.57
2018-12-17T23:37:52.378Z,110.10
2018-12-17T23:40:22.555Z,107.27
2018-12-17T23:42:52.484Z,108.53
2018-12-17T23:45:22.438Z,99.80
2018-12-17T23:47:52.281Z,109.77
2018-12-17T23:50:22.234Z,112.77
2018-12-17T23:52:52.219Z,107.57
2018-12-17T23:55:22.161Z,114.60
2018-12-17T23:57:52.027Z,115.90
